Time;durP1;ratioP1;P1;durP2;ratioP2;P2;SDS_P1;SDS_P2;PMS_P1;PMS_P2;Temp;Humidity;BMP_temperature;BMP_pressure;BME280_temperature;BME280_humidity;BME280_pressure;Samples;Min_cycle;Max_cycle;Signal;HPM_P1;HPM_P2
2021/03/14 00:01:00;;;;;;;56.13;33.02;;;;;;;0.81;83.38;100060.11;1795594;78;21840;-72
2021/03/14 00:03:29;;;;;;;55.20;33.15;;;;;;;0.85;83.57;100059.05;1793256;78;21127;-72
2021/03/14 00:05:58;;;;;;;54.00;33.80;;;;;;;0.90;83.67;100056.27;1788434;78;21583;-71
2021/03/14 00:08:28;;;;;;;53.13;32.35;;;;;;;0.90;83.77;100052.36;1703895;82;21212;-71
2021/03/14 00:11:03;;;;;;;56.90;35.83;;;;;;;0.92;83.83;100052.29;1752205;80;21571;-72
2021/03/14 00:13:34;;;;;;;54.03;34.65;;;;;;;0.91;83.94;100047.55;1777922;79;21875;-71
2021/03/14 00:16:02;;;;;;;49.60;31.20;;;;;;;0.93;84.00;100047.47;1796270;78;21047;-71
2021/03/14 00:18:33;;;;;;;52.43;33.38;;;;;;;0.91;84.07;100041.05;1805300;78;21480;-73
2021/03/14 00:21:01;;;;;;;46.88;30.62;;;;;;;0.90;84.14;100041.97;1797963;78;21061;-72
2021/03/14 00:23:29;;;;;;;48.78;28.00;;;;;;;0.90;84.23;100041.97;1779918;78;21139;-73
2021/03/14 00:25:57;;;;;;;49.27;31.33;;;;;;;0.88;84.32;100039.89;1786275;79;21679;-72
2021/03/14 00:28:25;;;;;;;52.50;30.37;;;;;;;0.88;84.42;100033.85;1774534;79;21583;-73
2021/03/14 00:30:54;;;;;;;42.60;26.65;;;;;;;0.87;84.55;100039.51;1784629;79;20985;-71
2021/03/14 00:33:21;;;;;;;44.42;26.23;;;;;;;0.88;84.67;100037.30;1777207;80;21789;-72
2021/03/14 00:35:51;;;;;;;46.70;30.32;;;;;;;0.90;84.77;100035.92;1777609;79;21054;-72
2021/03/14 00:38:18;;;;;;;49.95;29.27;;;;;;;0.91;84.88;100025.45;1756668;80;22027;-71
2021/03/14 00:40:46;;;;;;;59.67;33.60;;;;;;;0.92;85.00;100027.59;1743583;82;21185;-72
2021/03/14 00:43:14;;;;;;;47.80;31.10;;;;;;;0.92;85.02;100023.69;1745688;82;21164;-72
2021/03/14 00:45:42;;;;;;;45.55;28.32;;;;;;;0.92;85.05;100020.63;1743517;82;21078;-72
2021/03/14 00:48:11;;;;;;;47.43;31.00;;;;;;;0.92;85.09;100020.63;1727627;82;21126;-72
2021/03/14 00:50:42;;;;;;;57.08;33.05;;;;;;;0.91;85.09;100025.45;1744192;82;23842;-73
2021/03/14 00:53:11;;;;;;;49.90;32.53;;;;;;;0.90;85.16;100021.16;1740288;82;21278;-72
2021/03/14 00:55:41;;;;;;;59.30;35.58;;;;;;;0.91;85.21;100017.64;1722689;82;21374;-72
2021/03/14 00:58:09;;;;;;;51.30;33.25;;;;;;;0.92;85.26;100012.83;1746524;82;21506;-72
2021/03/14 01:00:38;;;;;;;53.75;34.67;;;;;;;0.96;85.32;100019.56;1745877;81;21605;-71
2021/03/14 01:03:07;;;;;;;54.33;33.73;;;;;;;0.98;85.35;100012.56;1738855;82;22092;-73
2021/03/14 01:05:36;;;;;;;47.40;30.48;;;;;;;1.00;85.40;100021.59;1727262;82;21131;-72
2021/03/14 01:08:05;;;;;;;46.85;28.23;;;;;;;1.03;85.47;100013.63;1747514;82;21193;-72
2021/03/14 01:10:33;;;;;;;43.40;27.67;;;;;;;1.05;85.51;100011.80;1740742;82;21096;-72
2021/03/14 01:13:03;;;;;;;48.73;31.50;;;;;;;1.07;85.52;100011.30;1746608;82;21164;-72
2021/03/14 01:15:31;;;;;;;46.05;29.10;;;;;;;1.07;85.53;100008.70;1729130;82;22112;-72
2021/03/14 01:17:59;;;;;;;44.18;28.42;;;;;;;1.06;85.53;99998.75;1747450;82;21146;-71
2021/03/14 01:20:27;;;;;;;39.20;26.68;;;;;;;1.07;85.53;99999.59;1745555;82;21070;-71
2021/03/14 01:22:54;;;;;;;44.50;28.17;;;;;;;1.07;85.54;99993.94;1747320;82;21180;-72
2021/03/14 01:25:22;;;;;;;38.00;23.50;;;;;;;1.08;85.54;99997.38;1704857;82;21094;-72
2021/03/14 01:27:51;;;;;;;38.35;23.52;;;;;;;1.06;85.54;99992.25;1760333;80;22105;-72
2021/03/14 01:30:19;;;;;;;36.25;23.12;;;;;;;1.05;85.52;99995.73;1757806;80;21370;-72
2021/03/14 01:32:47;;;;;;;35.33;22.95;;;;;;;1.03;85.50;99986.33;1786040;79;21132;-72
2021/03/14 01:35:17;;;;;;;28.77;19.57;;;;;;;1.01;85.53;99973.86;1734096;81;21642;-72
2021/03/14 01:37:45;;;;;;;30.77;20.65;;;;;;;1.00;85.52;99967.81;1768098;79;21163;-72
2021/03/14 01:40:16;;;;;;;35.30;23.55;;;;;;;0.99;85.51;99958.33;1744870;82;21186;-72
2021/03/14 01:42:45;;;;;;;35.05;22.62;;;;;;;0.96;85.46;99961.05;1763716;79;21081;-72
2021/03/14 01:45:14;;;;;;;33.55;22.50;;;;;;;0.95;85.49;99967.62;1763382;80;21061;-70
2021/03/14 01:47:45;;;;;;;35.40;24.77;;;;;;;0.94;85.49;99972.45;1755510;81;21172;-73
2021/03/14 01:50:18;;;;;;;31.87;22.27;;;;;;;0.91;85.49;99973.90;1743600;80;21547;-72
2021/03/14 01:52:46;;;;;;;29.92;20.45;;;;;;;0.89;85.47;99975.73;1772004;79;22021;-72
2021/03/14 01:55:15;;;;;;;29.95;20.45;;;;;;;0.86;85.44;99973.64;1770511;79;21060;-72
2021/03/14 01:57:44;;;;;;;31.60;21.12;;;;;;;0.86;85.45;99974.09;1777111;80;21057;-72
2021/03/14 02:00:15;;;;;;;31.33;22.02;;;;;;;0.82;85.41;99973.41;1784870;79;21473;-73
2021/03/14 02:02:43;;;;;;;27.85;19.50;;;;;;;0.80;85.39;99970.04;1788694;79;21045;-71
2021/03/14 02:05:14;;;;;;;26.42;17.95;;;;;;;0.79;85.40;99966.22;1794736;79;22770;-72
2021/03/14 02:07:43;;;;;;;31.10;21.42;;;;;;;0.78;85.41;99965.83;1761790;79;20947;-72
2021/03/14 02:10:13;;;;;;;28.17;18.92;;;;;;;0.76;85.38;99967.62;1786051;79;21568;-71
2021/03/14 02:12:48;;;;;;;27.22;17.90;;;;;;;0.74;85.42;99962.97;1769734;80;21467;-72
2021/03/14 02:15:16;;;;;;;29.87;19.90;;;;;;;0.73;85.42;99969.08;1769299;80;21096;-71
2021/03/14 02:17:43;;;;;;;29.20;19.23;;;;;;;0.73;85.42;99967.33;1730452;81;21903;-70
2021/03/14 02:20:20;;;;;;;31.05;20.45;;;;;;;0.72;85.43;99966.09;1790372;80;21069;-72
2021/03/14 02:22:49;;;;;;;28.60;19.17;;;;;;;0.72;85.45;99970.00;1726365;82;21237;-71
2021/03/14 02:25:37;;;;;;;34.80;21.20;;;;;;;0.71;85.43;99965.72;1749208;80;21125;-72
2021/03/14 02:28:05;;;;;;;32.40;21.23;;;;;;;0.67;85.43;99979.75;1800099;78;21168;-73
2021/03/14 02:30:33;;;;;;;26.37;17.77;;;;;;;0.63;85.48;99975.16;1794511;79;21961;-74
2021/03/14 02:33:02;;;;;;;30.62;19.60;;;;;;;0.60;85.51;99979.66;1764109;79;21131;-74
2021/03/14 02:35:30;;;;;;;29.57;17.73;;;;;;;0.55;85.57;99974.64;1764837;79;21041;-72
2021/03/14 02:37:58;;;;;;;23.05;16.12;;;;;;;0.52;85.62;99981.29;1795810;79;21132;-71
2021/03/14 02:40:25;;;;;;;27.73;16.80;;;;;;;0.47;85.67;99981.47;1764018;79;21073;-72
2021/03/14 02:42:53;;;;;;;22.58;15.43;;;;;;;0.45;85.72;99987.20;1772008;80;22053;-71
2021/03/14 02:45:23;;;;;;;32.58;17.52;;;;;;;0.42;85.76;99987.80;1794842;78;21065;-72
2021/03/14 02:47:51;;;;;;;25.08;15.85;;;;;;;0.38;85.81;99987.08;1793392;78;21142;-72
2021/03/14 02:50:21;;;;;;;19.02;13.58;;;;;;;0.34;85.86;99984.69;1710907;81;21109;-73
2021/03/14 02:52:48;;;;;;;25.65;15.68;;;;;;;0.32;85.92;99991.26;1726407;81;21168;-72
2021/03/14 02:55:20;;;;;;;29.42;15.18;;;;;;;0.29;85.95;99986.20;1794118;79;22301;-71
2021/03/14 02:57:48;;;;;;;26.70;13.90;;;;;;;0.28;85.99;99994.42;1795140;79;21511;-71
2021/03/14 03:00:22;;;;;;;27.98;16.45;;;;;;;0.25;86.01;99993.72;1757374;81;21174;-72
2021/03/14 03:02:52;;;;;;;36.13;17.67;;;;;;;0.24;86.06;99988.98;1752530;81;21052;-72
2021/03/14 03:05:21;;;;;;;20.90;14.63;;;;;;;0.24;86.09;99990.74;1754682;81;21062;-72
2021/03/14 03:07:55;;;;;;;23.12;15.28;;;;;;;0.21;86.16;99985.69;1758526;81;22983;-72
2021/03/14 03:10:30;;;;;;;20.97;14.47;;;;;;;0.22;86.23;99988.67;1757083;81;21331;-71
2021/03/14 03:12:59;;;;;;;25.37;16.65;;;;;;;0.21;86.26;99982.64;1751503;80;21116;-72
2021/03/14 03:15:27;;;;;;;27.20;16.50;;;;;;;0.22;86.29;99989.52;1789281;79;21147;-72
2021/03/14 03:17:54;;;;;;;23.52;15.28;;;;;;;0.23;86.36;99998.15;1759987;80;21168;-72
2021/03/14 03:20:26;;;;;;;28.15;16.87;;;;;;;0.25;86.42;99992.42;1787083;78;22055;-75
2021/03/14 03:22:54;;;;;;;20.15;13.62;;;;;;;0.27;86.43;99995.80;1756436;81;21093;-73
2021/03/14 03:25:22;;;;;;;23.98;17.60;;;;;;;0.28;86.47;100000.92;1738176;80;21085;-73
2021/03/14 03:27:50;;;;;;;23.47;15.70;;;;;;;0.27;86.50;99986.70;1795240;80;21044;-72
2021/03/14 03:30:21;;;;;;;27.13;16.27;;;;;;;0.29;86.52;99996.59;1771578;80;21109;-75
2021/03/14 03:32:49;;;;;;;23.80;17.10;;;;;;;0.30;86.54;99999.58;1777820;80;22133;-72
2021/03/14 03:35:18;;;;;;;31.05;15.50;;;;;;;0.30;86.56;99999.58;1771343;80;21171;-72
2021/03/14 03:37:46;;;;;;;26.62;17.37;;;;;;;0.29;86.62;100005.69;1795508;78;21559;-72
2021/03/14 03:40:17;;;;;;;40.92;18.35;;;;;;;0.29;86.64;99995.30;1770144;80;21166;-72
2021/03/14 03:42:59;;;;;;;25.80;15.38;;;;;;;0.28;86.68;100000.92;1757057;81;21144;-73
2021/03/14 03:45:28;;;;;;;32.65;16.42;;;;;;;0.28;86.70;99995.72;1756738;81;21901;-72
2021/03/14 03:47:56;;;;;;;27.50;15.93;;;;;;;0.30;86.74;100004.77;1778665;80;21548;-73
2021/03/14 03:50:25;;;;;;;26.77;16.97;;;;;;;0.27;86.75;100004.43;1775017;80;21148;-72
2021/03/14 03:52:54;;;;;;;24.55;15.90;;;;;;;0.27;86.80;100010.08;1796209;79;21044;-72
2021/03/14 03:55:22;;;;;;;27.40;16.37;;;;;;;0.27;86.84;100013.98;1782059;80;21037;-71
2021/03/14 03:57:50;;;;;;;22.95;15.32;;;;;;;0.27;86.87;100013.98;1788289;79;21673;-73
2021/03/14 04:00:19;;;;;;;25.62;15.68;;;;;;;0.25;86.94;100008.85;1777008;79;21563;-73
2021/03/14 04:02:47;;;;;;;23.47;16.52;;;;;;;0.25;86.99;100000.22;1777149;80;21074;-72
2021/03/14 04:05:15;;;;;;;37.75;19.90;;;;;;;0.26;87.00;99998.00;1792950;79;21136;-71
2021/03/14 04:07:44;;;;;;;39.55;20.17;;;;;;;0.28;87.03;99997.02;1803925;78;21025;-71
2021/03/14 04:10:19;;;;;;;28.25;18.52;;;;;;;0.29;87.05;99997.89;1780709;79;22060;-72
2021/03/14 04:12:49;;;;;;;27.62;17.57;;;;;;;0.30;87.10;100000.88;1764768;81;21556;-71
2021/03/14 04:15:24;;;;;;;38.55;21.93;;;;;;;0.32;87.16;99991.26;1744755;80;21042;-72
2021/03/14 04:17:52;;;;;;;31.23;18.87;;;;;;;0.34;87.19;99989.89;1802303;78;21077;-73
2021/03/14 04:20:25;;;;;;;30.82;19.67;;;;;;;0.35;87.26;99993.72;1768005;80;21481;-71
2021/03/14 04:22:56;;;;;;;31.50;19.70;;;;;;;0.36;87.29;99985.00;1795397;79;22068;-71
2021/03/14 04:25:24;;;;;;;33.88;21.20;;;;;;;0.38;87.35;99992.73;1777592;79;21085;-72
2021/03/14 04:27:52;;;;;;;37.17;21.97;;;;;;;0.39;87.37;99991.39;1772412;80;21085;-72
2021/03/14 04:30:22;;;;;;;29.12;17.67;;;;;;;0.39;87.47;99995.28;1748077;79;21171;-71
2021/03/14 04:32:50;;;;;;;30.10;18.92;;;;;;;0.38;87.48;100001.36;1795220;78;21147;-71
2021/03/14 04:35:18;;;;;;;28.57;18.35;;;;;;;0.38;87.53;99995.33;1788142;79;22032;-71
2021/03/14 04:37:45;;;;;;;31.68;19.70;;;;;;;0.38;87.57;99987.53;1765447;79;21140;-71
2021/03/14 04:40:14;;;;;;;34.35;20.60;;;;;;;0.39;87.61;99993.14;1762333;80;21559;-71
2021/03/14 04:42:46;;;;;;;29.63;19.37;;;;;;;0.37;87.64;99978.89;1790197;78;21147;-71
2021/03/14 04:45:15;;;;;;;;;;;;;;;0.36;87.69;99982.41;1745047;81;21160;-70
2021/03/14 04:47:45;;;;;;;25.23;16.12;;;;;;;0.36;87.73;99983.70;1780159;80;21730;-72
2021/03/14 04:50:18;;;;;;;30.43;18.23;;;;;;;0.36;87.74;99986.30;1780769;79;21357;-71
2021/03/14 04:52:49;;;;;;;30.08;18.37;;;;;;;0.38;87.78;99988.38;1784730;79;21080;-72
2021/03/14 04:55:17;;;;;;;37.00;20.17;;;;;;;0.41;87.81;99986.12;1765945;80;21107;-73
2021/03/14 04:57:45;;;;;;;29.02;18.05;;;;;;;0.44;87.83;99993.77;1751015;81;21160;-72
2021/03/14 05:00:15;;;;;;;41.20;18.73;;;;;;;0.46;87.87;99984.98;1756487;81;22064;-73
2021/03/14 05:02:44;;;;;;;29.60;17.25;;;;;;;0.47;87.89;99993.17;1736081;82;21348;-72
2021/03/14 05:05:13;;;;;;;29.30;18.20;;;;;;;0.49;87.92;99995.27;1802561;78;21349;-74
2021/03/14 05:07:43;;;;;;;53.58;22.65;;;;;;;0.51;87.97;99997.34;1775394;80;21054;-74
2021/03/14 05:10:21;;;;;;;48.28;23.18;;;;;;;0.52;87.97;100004.22;1768721;79;21036;-73
2021/03/14 05:12:49;;;;;;;27.93;17.85;;;;;;;0.54;87.98;100003.69;1773546;79;22540;-71
2021/03/14 05:15:18;;;;;;;28.27;18.02;;;;;;;0.56;88.02;100001.02;1780487;80;21521;-72
2021/03/14 05:17:47;;;;;;;25.20;15.60;;;;;;;0.55;88.03;99996.28;1797317;78;21369;-71
2021/03/14 05:20:17;;;;;;;40.50;18.75;;;;;;;0.60;88.06;100001.75;1789405;79;21172;-71
2021/03/14 05:22:47;;;;;;;32.67;17.95;;;;;;;0.61;88.08;100002.13;1780867;79;21096;-72
2021/03/14 05:25:16;;;;;;;27.77;18.10;;;;;;;0.63;88.12;99997.70;1797020;78;22065;-72
2021/03/14 05:27:50;;;;;;;35.45;20.72;;;;;;;0.64;88.13;99996.33;1774426;80;21263;-73
2021/03/14 05:30:26;;;;;;;34.05;20.10;;;;;;;0.66;88.17;100001.45;1789445;79;21061;-74
2021/03/14 05:32:55;;;;;;;32.48;18.30;;;;;;;0.68;88.16;99994.45;1789390;79;21132;-74
2021/03/14 05:35:26;;;;;;;34.55;19.90;;;;;;;0.70;88.21;99997.82;1771862;80;21156;-72
2021/03/14 05:37:57;;;;;;;35.15;20.17;;;;;;;0.70;88.23;99995.22;1810451;78;22017;-72
2021/03/14 05:40:26;;;;;;;50.23;23.45;;;;;;;0.71;88.25;99987.81;1728124;83;21253;-72
2021/03/14 05:42:54;;;;;;;40.60;22.00;;;;;;;0.73;88.28;99984.22;1756591;81;21485;-71
2021/03/14 05:45:22;;;;;;;35.73;19.62;;;;;;;0.75;88.29;99991.95;1770908;79;21125;-73
2021/03/14 05:47:49;;;;;;;27.50;17.05;;;;;;;0.78;88.33;99989.23;1773970;79;21058;-72
2021/03/14 05:50:20;;;;;;;29.77;16.45;;;;;;;0.80;88.33;99983.49;1778822;79;22065;-72
2021/03/14 05:52:48;;;;;;;30.57;17.32;;;;;;;0.83;88.37;99993.28;1756696;80;21220;-72
2021/03/14 05:55:22;;;;;;;29.40;18.32;;;;;;;0.85;88.38;99988.85;1781434;80;21366;-74
2021/03/14 05:57:54;;;;;;;31.65;19.48;;;;;;;0.88;88.42;99997.45;1778582;80;21105;-72
2021/03/14 06:00:27;;;;;;;31.75;18.20;;;;;;;0.90;88.43;99991.72;1774783;80;21129;-72
2021/03/14 06:02:59;;;;;;;28.02;16.50;;;;;;;0.92;88.44;99989.42;1736924;81;23083;-72
2021/03/14 06:05:28;;;;;;;29.60;16.80;;;;;;;0.97;88.47;99987.94;1725474;81;21152;-73
2021/03/14 06:07:57;;;;;;;29.20;18.48;;;;;;;0.98;88.49;99985.72;1783056;79;21109;-74
2021/03/14 06:10:27;;;;;;;32.03;18.75;;;;;;;1.03;88.54;99986.33;1748005;81;21144;-74
2021/03/14 06:12:54;;;;;;;32.90;18.73;;;;;;;1.06;88.54;99981.84;1752050;80;21072;-74
2021/03/14 06:15:22;;;;;;;33.45;16.77;;;;;;;1.09;88.55;99982.16;1759828;80;21898;-72
2021/03/14 06:17:49;;;;;;;29.72;19.07;;;;;;;1.12;88.60;99972.89;1794456;77;21239;-72
2021/03/14 06:20:40;;;;;;;23.98;16.20;;;;;;;1.16;88.59;99969.25;1787241;78;21136;-72
2021/03/14 06:23:10;;;;;;;29.32;17.62;;;;;;;1.23;88.59;99974.98;1779686;80;21108;-71
2021/03/14 06:25:39;;;;;;;31.68;19.27;;;;;;;1.29;88.62;99973.41;1791067;78;21108;-71
2021/03/14 06:28:07;;;;;;;25.15;16.75;;;;;;;1.34;88.62;99976.62;1772193;80;21890;-72
2021/03/14 06:30:35;;;;;;;27.65;17.52;;;;;;;1.38;88.64;99980.31;1731189;82;21180;-74
2021/03/14 06:33:11;;;;;;;26.68;16.65;;;;;;;1.41;88.61;99976.72;1719907;83;21066;-73
2021/03/14 06:35:55;;;;;;;28.55;17.25;;;;;;;1.44;88.61;99979.16;1717462;82;21156;-72
2021/03/14 06:38:32;;;;;;;22.22;13.62;;;;;;;1.49;88.59;99982.86;1725263;83;21062;-73
2021/03/14 06:41:13;;;;;;;27.35;17.62;;;;;;;1.52;88.58;99982.23;1746660;82;22107;-73
2021/03/14 06:43:50;;;;;;;22.67;16.10;;;;;;;1.58;88.58;99988.92;1743880;82;21152;-72
2021/03/14 06:46:33;;;;;;;21.25;14.53;;;;;;;1.63;88.57;99977.35;1728424;82;21118;-72
2021/03/14 06:49:10;;;;;;;21.35;14.73;;;;;;;1.69;88.54;99989.23;1746153;82;21398;-71
2021/03/14 06:51:47;;;;;;;51.65;32.10;;;;;;;1.76;88.52;99984.58;1732436;82;21213;-72
2021/03/14 06:54:34;;;;;;;31.30;26.02;;;;;;;1.82;88.50;99972.54;1729795;82;22089;-72
2021/03/14 06:57:20;;;;;;;29.23;23.98;;;;;;;1.90;88.47;99986.03;1735789;82;21091;-72
2021/03/14 06:59:54;;;;;;;23.98;18.20;;;;;;;1.96;88.44;99984.43;1715138;82;21079;-71
2021/03/14 07:02:25;;;;;;;;;;;;;;;2.02;88.38;99984.10;1719374;82;21072;-73
2021/03/14 07:05:01;;;;;;;20.55;15.13;;;;;;;2.07;88.34;99984.73;1742547;82;20261;-73
2021/03/14 07:07:39;;;;;;;20.02;15.18;;;;;;;2.14;88.30;99976.15;1742860;82;22947;-74
2021/03/14 07:10:12;;;;;;;19.42;14.78;;;;;;;2.21;88.26;99981.41;1746366;82;21227;-73
2021/03/14 07:12:45;;;;;;;21.48;16.87;;;;;;;2.29;88.22;99981.40;1726248;83;21066;-74
2021/03/14 07:15:19;;;;;;;15.58;12.10;;;;;;;2.39;88.16;99979.63;1704457;83;21090;-73
2021/03/14 07:17:53;;;;;;;18.35;13.78;;;;;;;2.47;88.09;99985.28;1723900;82;21121;-73
2021/03/14 07:20:25;;;;;;;17.87;14.18;;;;;;;2.56;88.02;99995.23;1713538;82;22085;-73
2021/03/14 07:23:08;;;;;;;16.05;12.30;;;;;;;2.64;87.96;99993.53;1701136;83;21489;-74
2021/03/14 07:25:43;;;;;;;17.23;12.45;;;;;;;2.71;87.86;99993.59;1725595;80;21212;-74
2021/03/14 07:28:14;;;;;;;18.50;14.18;;;;;;;2.77;87.73;99995.39;1729404;81;21130;-73
2021/03/14 07:30:41;;;;;;;19.87;14.13;;;;;;;2.81;87.60;99996.93;1760511;81;21109;-74
2021/03/14 07:33:10;;;;;;;19.02;13.62;;;;;;;2.84;87.43;99995.91;1709759;82;21915;-73
2021/03/14 07:35:39;;;;;;;16.60;13.20;;;;;;;2.87;87.31;99995.28;1719650;82;21631;-74
2021/03/14 07:38:09;;;;;;;16.73;13.15;;;;;;;2.91;87.15;99992.53;1766987;81;21129;-72
2021/03/14 07:40:38;;;;;;;18.00;13.43;;;;;;;2.93;87.00;99985.45;1742002;81;21074;-74
2021/03/14 07:43:06;;;;;;;20.05;14.95;;;;;;;2.95;86.80;99981.83;1727258;82;21187;-74
2021/03/14 07:45:34;;;;;;;17.62;13.25;;;;;;;2.96;86.63;99982.67;1735006;82;22644;-73
2021/03/14 07:48:04;;;;;;;18.57;14.30;;;;;;;2.97;86.51;99981.73;1761156;81;22665;-72
2021/03/14 07:50:42;;;;;;;21.02;14.93;;;;;;;3.00;86.37;99972.47;1722043;82;21078;-73
2021/03/14 07:53:11;;;;;;;19.95;15.03;;;;;;;3.03;86.16;99966.61;1762406;81;21105;-75
2021/03/14 07:55:39;;;;;;;19.35;14.45;;;;;;;3.06;85.88;99961.20;1764782;81;21144;-75
2021/03/14 07:58:13;;;;;;;19.02;14.18;;;;;;;3.11;85.66;99957.06;1739819;82;21921;-75
2021/03/14 08:00:42;;;;;;;19.20;13.80;;;;;;;3.16;85.46;99949.80;1744145;81;21066;-75
2021/03/14 08:03:10;;;;;;;16.40;13.43;;;;;;;3.20;85.29;99950.02;1762377;81;21055;-76
2021/03/14 08:05:44;;;;;;;16.30;12.88;;;;;;;3.26;85.16;99952.73;1742825;82;21577;-75
2021/03/14 08:08:30;;;;;;;15.85;12.43;;;;;;;3.28;84.95;99953.05;1750474;81;21091;-75
2021/03/14 08:10:59;;;;;;;20.23;14.05;;;;;;;3.30;84.71;99949.89;1761337;81;21416;-76
2021/03/14 08:13:37;;;;;;;21.48;15.10;;;;;;;3.30;84.48;99942.05;1767073;81;21122;-75
2021/03/14 08:16:08;;;;;;;23.35;16.62;;;;;;;3.31;84.32;99943.73;1734643;82;21160;-71
2021/03/14 08:18:42;;;;;;;18.20;12.80;;;;;;;3.31;84.12;99947.65;1736391;82;21439;-71
2021/03/14 08:21:36;;;;;;;20.30;13.80;;;;;;;3.33;83.99;99942.34;1736249;82;21097;-74
2021/03/14 08:24:06;;;;;;;22.17;15.28;;;;;;;3.33;83.71;99944.95;1731001;82;21906;-75
2021/03/14 08:26:36;;;;;;;37.88;25.30;;;;;;;3.37;83.57;99953.81;1759701;81;21192;-72
2021/03/14 08:29:13;;;;;;;27.27;20.97;;;;;;;3.42;83.37;99945.73;1724228;83;21137;-74
2021/03/14 08:31:53;;;;;;;25.23;16.70;;;;;;;3.44;83.21;99955.16;1753335;81;21547;-74
2021/03/14 08:34:44;;;;;;;21.37;15.38;;;;;;;3.55;83.09;99947.17;1863409;76;29525;-72
2021/03/14 08:37:23;;;;;;;22.30;16.90;;;;;;;3.55;82.91;99952.39;1817567;78;21159;-73
2021/03/14 08:40:00;;;;;;;22.85;16.85;;;;;;;3.61;82.71;99944.22;1808064;78;21877;-74
2021/03/14 08:42:55;;;;;;;26.35;18.00;;;;;;;3.73;82.64;99943.04;1881033;76;29157;-71
2021/03/14 08:45:28;;;;;;;24.23;17.75;;;;;;;3.77;82.42;99942.42;1811115;77;21525;-73
2021/03/14 08:48:08;;;;;;;22.80;15.70;;;;;;;3.94;82.27;99938.33;1884107;74;29471;-73
2021/03/14 08:50:38;;;;;;;22.30;16.15;;;;;;;3.99;81.99;99942.83;1819587;77;21134;-72
2021/03/14 08:53:13;;;;;;;24.05;17.23;;;;;;;4.07;81.72;99941.55;1821179;77;22028;-76
2021/03/14 08:55:47;;;;;;;22.90;17.37;;;;;;;4.14;81.53;99941.06;1825625;77;21070;-72
2021/03/14 08:58:16;;;;;;;21.00;14.78;;;;;;;4.22;81.37;99947.14;1773040;77;21191;-71
2021/03/14 09:01:11;;;;;;;22.40;16.60;;;;;;;4.31;81.07;99943.98;1854257;76;29425;-77
2021/03/14 09:03:47;;;;;;;22.10;15.98;;;;;;;4.30;80.85;99937.91;1810692;78;21092;-77
2021/03/14 09:06:30;;;;;;;21.42;15.85;;;;;;;4.36;80.75;99941.10;1810371;78;22471;-75
2021/03/14 09:09:01;;;;;;;20.88;15.28;;;;;;;4.41;80.66;99938.56;1811635;78;21146;-74
2021/03/14 09:11:51;;;;;;;18.15;14.00;;;;;;;4.43;80.34;99937.16;1834160;78;21040;-76
2021/03/14 09:14:48;;;;;;;20.60;16.27;;;;;;;4.48;80.16;99938.57;1852800;76;28364;-75
2021/03/14 09:17:29;;;;;;;22.30;17.00;;;;;;;4.46;80.04;99935.22;1838146;77;21034;-74
2021/03/14 09:19:59;;;;;;;23.38;15.20;;;;;;;4.52;79.77;99930.06;1798470;77;22040;-74
2021/03/14 09:22:36;;;;;;;23.02;16.55;;;;;;;4.57;79.74;99922.78;1844925;77;21204;-77
2021/03/14 09:25:14;;;;;;;22.45;16.97;;;;;;;4.71;79.54;99914.06;1854604;76;29204;-80
2021/03/14 09:27:44;;;;;;;20.77;15.40;;;;;;;4.78;79.47;99909.67;1787376;79;21171;-75
2021/03/14 09:30:18;;;;;;;21.50;15.10;;;;;;;4.93;79.20;99909.19;1776615;80;22074;-74
2021/03/14 09:32:52;;;;;;;22.22;17.57;;;;;;;5.04;78.94;99908.50;1783676;79;21490;-73
2021/03/14 09:35:30;;;;;;;21.20;15.30;;;;;;;5.16;78.79;99911.63;1765264;79;21165;-71
2021/03/14 09:38:11;;;;;;;23.55;18.50;;;;;;;5.23;78.07;99909.00;1785325;80;21243;-74
2021/03/14 09:40:47;;;;;;;22.00;16.45;;;;;;;5.31;77.68;99914.58;1781293;80;21129;-75
2021/03/14 09:43:22;;;;;;;19.10;14.25;;;;;;;5.38;77.28;99913.69;1754922;80;22070;-76
2021/03/14 09:46:08;;;;;;;21.30;15.38;;;;;;;5.37;76.89;99918.56;1782347;80;21496;-73
2021/03/14 09:48:49;;;;;;;24.60;16.20;;;;;;;5.34;76.76;99912.22;1845818;76;29656;-74
2021/03/14 09:51:17;;;;;;;19.20;13.90;;;;;;;5.24;76.63;99915.07;1793112;78;21141;-75
2021/03/14 09:53:45;;;;;;;15.80;11.60;;;;;;;5.16;76.72;99916.86;1806019;78;21984;-72
2021/03/14 09:56:15;;;;;;;18.52;12.98;;;;;;;5.04;76.53;99930.27;1798452;77;21189;-74
2021/03/14 09:59:02;;;;;;;16.55;12.30;;;;;;;4.97;76.61;99929.45;1812038;79;21616;-72
2021/03/14 10:01:36;;;;;;;19.87;13.25;;;;;;;4.82;76.64;99924.70;1811639;77;21168;-73
2021/03/14 10:04:04;;;;;;;15.08;11.63;;;;;;;4.69;76.84;99917.25;1811363;78;21212;-76
2021/03/14 10:06:38;;;;;;;20.35;13.88;;;;;;;4.59;77.12;99922.22;1774915;79;21901;-75
2021/03/14 10:09:08;;;;;;;20.60;14.00;;;;;;;4.52;77.28;99909.97;1801309;77;21174;-72
2021/03/14 10:11:36;;;;;;;21.60;15.38;;;;;;;4.53;77.47;99912.95;1768391;78;21157;-79
2021/03/14 10:14:04;;;;;;;18.62;13.55;;;;;;;4.55;77.58;99914.20;1810944;77;21168;-73
2021/03/14 10:16:33;;;;;;;19.25;13.43;;;;;;;4.58;77.70;99908.77;1809605;77;21160;-75
2021/03/14 10:19:03;;;;;;;23.52;16.50;;;;;;;4.58;77.79;99904.38;1811279;78;22503;-72
2021/03/14 10:21:34;;;;;;;28.92;19.80;;;;;;;4.57;77.89;99897.94;1787679;79;21170;-73
2021/03/14 10:24:24;;;;;;;41.73;30.50;;;;;;;4.57;77.99;99905.78;1814502;77;21128;-74
2021/03/14 10:27:02;;;;;;;29.77;18.27;;;;;;;4.57;78.08;99904.48;1801469;78;21164;-72
2021/03/14 10:29:36;;;;;;;24.37;17.42;;;;;;;4.58;78.22;99899.14;1802221;78;21159;-72
2021/03/14 10:32:23;;;;;;;23.18;16.30;;;;;;;4.60;78.41;99898.58;1811679;77;22770;-70
2021/03/14 10:34:56;;;;;;;25.48;18.73;;;;;;;4.62;78.50;99895.02;1792934;77;22304;-74
2021/03/14 10:37:32;;;;;;;24.15;16.85;;;;;;;4.64;78.55;99887.47;1801174;77;21441;-73
2021/03/14 10:40:12;;;;;;;23.05;15.95;;;;;;;4.69;78.60;99880.16;1780981;79;21161;-73
2021/03/14 10:42:52;;;;;;;23.38;16.48;;;;;;;4.75;78.59;99879.78;1792749;79;21640;-72
2021/03/14 10:45:22;;;;;;;21.48;15.50;;;;;;;4.82;78.61;99875.82;1780674;79;22047;-71
2021/03/14 10:48:03;;;;;;;22.42;16.23;;;;;;;4.87;78.43;99882.09;1788979;79;21623;-71
2021/03/14 10:50:35;;;;;;;21.73;15.08;;;;;;;4.91;78.45;99878.80;1774908;79;21507;-75
2021/03/14 10:53:16;;;;;;;20.40;15.15;;;;;;;4.94;78.34;99876.00;1735291;81;21186;-74
2021/03/14 10:55:47;;;;;;;18.95;13.62;;;;;;;4.96;78.38;99865.80;1726812;82;21455;-72
2021/03/14 10:58:18;;;;;;;21.85;16.12;;;;;;;4.99;78.26;99870.83;1731328;82;22196;-70
2021/03/14 11:00:53;;;;;;;50.88;35.60;;;;;;;5.02;78.16;99866.72;1736336;81;21633;-75
2021/03/14 11:03:29;;;;;;;22.52;16.70;;;;;;;5.04;78.05;99867.92;1721335;82;21509;-73
2021/03/14 11:06:15;;;;;;;20.55;14.78;;;;;;;5.04;78.13;99857.45;1737292;82;21129;-77
2021/03/14 11:09:03;;;;;;;24.27;16.57;;;;;;;5.04;78.10;99853.53;1733638;82;21178;-71
2021/03/14 11:11:43;;;;;;;21.57;15.60;;;;;;;5.02;78.13;99854.95;1730038;82;21142;-72
2021/03/14 11:14:38;;;;;;;21.45;14.73;;;;;;;5.02;78.20;99843.17;1732974;81;21151;-71
2021/03/14 11:17:16;;;;;;;23.45;15.75;;;;;;;5.01;78.25;99855.86;1716302;82;21150;-72
2021/03/14 11:19:49;;;;;;;24.50;16.40;;;;;;;4.94;78.41;99852.45;1713209;83;21042;-72
2021/03/14 11:22:19;;;;;;;23.38;13.62;;;;;;;4.87;78.61;99858.53;1739441;82;22262;-72
2021/03/14 11:24:49;;;;;;;21.20;14.78;;;;;;;4.82;78.82;99856.66;1740096;82;24041;-73
2021/03/14 11:27:17;;;;;;;22.70;15.05;;;;;;;4.77;79.03;99849.59;1736891;82;21490;-73
2021/03/14 11:29:45;;;;;;;25.90;15.88;;;;;;;4.73;79.27;99855.50;1714160;82;21157;-72
2021/03/14 11:32:15;;;;;;;20.80;14.55;;;;;;;4.69;79.48;99844.01;1736961;82;21183;-73
2021/03/14 11:34:45;;;;;;;31.02;21.80;;;;;;;4.66;79.64;99840.29;1725155;82;21189;-73
2021/03/14 11:37:35;;;;;;;25.10;17.17;;;;;;;4.69;79.75;99829.62;1844878;76;30232;-72
2021/03/14 11:40:07;;;;;;;26.00;17.25;;;;;;;4.66;79.89;99835.89;1800357;78;21132;-74
2021/03/14 11:42:37;;;;;;;21.42;14.95;;;;;;;4.66;80.02;99836.36;1801562;78;22063;-69
2021/03/14 11:45:08;;;;;;;22.15;15.28;;;;;;;4.66;80.09;99828.05;1771425;78;21189;-73
2021/03/14 11:47:36;;;;;;;25.95;17.98;;;;;;;4.65;80.17;99830.30;1791668;79;21143;-71